Time;durP1;ratioP1;P1;durP2;ratioP2;P2;SDS_P1;SDS_P2;PMS_P1;PMS_P2;Temp;Humidity;BMP_temperature;BMP_pressure;BME280_temperature;BME280_humidity;BME280_pressure;Samples;Min_cycle;Max_cycle;Signal;HPM_P1;HPM_P2
2022/01/08 00:01:47;;;;;;;27.98;10.18;;;8.60;99.90;;;;;;5290032;28;20501;-72
2022/01/08 00:04:18;;;;;;;23.85;8.77;;;8.50;99.90;;;;;;5290002;28;20042;-72
2022/01/08 00:06:49;;;;;;;28.30;9.23;;;8.60;99.90;;;;;;5289760;28;20471;-72
2022/01/08 00:09:20;;;;;;;22.58;8.30;;;8.60;99.90;;;;;;5294354;28;20153;-72
2022/01/08 00:11:50;;;;;;;25.70;8.40;;;8.60;99.90;;;;;;5294311;28;20048;-72
2022/01/08 00:14:23;;;;;;;29.73;9.88;;;8.40;99.90;;;;;;5294340;28;20077;-72
2022/01/08 00:16:53;;;;;;;26.85;10.10;;;8.50;99.90;;;;;;5294228;28;20030;-72
2022/01/08 00:19:25;;;;;;;23.10;9.20;;;8.60;99.90;;;;;;5294252;28;20027;-72
2022/01/08 00:21:56;;;;;;;35.50;10.80;;;8.50;99.90;;;;;;5294100;28;20024;-73
2022/01/08 00:24:26;;;;;;;24.63;9.65;;;8.50;99.90;;;;;;5294232;27;20140;-72
2022/01/08 00:26:57;;;;;;;32.85;10.57;;;8.60;99.90;;;;;;5294029;28;20066;-72
2022/01/08 00:29:28;;;;;;;19.73;8.57;;;8.50;99.90;;;;;;5294042;27;20093;-73
2022/01/08 00:31:59;;;;;;;34.28;10.82;;;8.50;99.90;;;;;;5293960;28;20095;-72
2022/01/08 00:34:30;;;;;;;30.15;9.55;;;8.40;99.90;;;;;;5293718;28;20047;-73
2022/01/08 00:37:00;;;;;;;28.27;8.82;;;8.40;99.90;;;;;;5293841;28;20514;-72
2022/01/08 00:39:32;;;;;;;24.42;8.65;;;8.60;99.90;;;;;;5293789;28;20020;-73
2022/01/08 00:42:03;;;;;;;30.85;9.40;;;8.50;99.90;;;;;;5293849;28;20023;-73
2022/01/08 00:44:34;;;;;;;36.95;9.55;;;8.50;99.90;;;;;;5293915;28;20016;-72
2022/01/08 00:47:05;;;;;;;30.95;9.20;;;8.60;99.90;;;;;;5293567;28;20027;-72
2022/01/08 00:49:37;;;;;;;24.60;8.00;;;8.50;99.90;;;;;;5293578;28;20031;-73
2022/01/08 00:52:08;;;;;;;25.25;7.72;;;8.60;99.90;;;;;;5293675;28;20012;-73
2022/01/08 00:54:39;;;;;;;31.58;8.82;;;8.50;99.90;;;;;;5293643;28;20032;-72
2022/01/08 00:57:10;;;;;;;37.33;9.18;;;8.50;99.90;;;;;;5293573;28;20019;-72
2022/01/08 00:59:41;;;;;;;34.15;9.25;;;8.60;99.90;;;;;;5293540;28;20528;-72
2022/01/08 01:02:12;;;;;;;34.65;8.43;;;8.50;99.90;;;;;;5293569;28;20047;-72
2022/01/08 01:04:43;;;;;;;29.05;8.52;;;8.60;99.90;;;;;;5293289;27;20081;-72
2022/01/08 01:07:14;;;;;;;33.05;8.82;;;8.60;99.90;;;;;;5293019;28;20077;-73
2022/01/08 01:09:45;;;;;;;30.90;8.80;;;8.50;99.90;;;;;;5293273;28;20103;-72
2022/01/08 01:12:15;;;;;;;36.80;10.25;;;8.60;99.90;;;;;;5293274;28;20110;-72
2022/01/08 01:14:46;;;;;;;31.20;10.20;;;8.50;99.90;;;;;;5293108;28;20027;-72
2022/01/08 01:17:17;;;;;;;32.60;10.07;;;8.60;99.90;;;;;;5292869;28;20027;-73
2022/01/08 01:19:49;;;;;;;35.67;10.32;;;8.60;99.90;;;;;;5292967;28;20024;-73
2022/01/08 01:22:24;;;;;;;31.83;10.25;;;8.60;99.90;;;;;;5292754;28;20023;-73
2022/01/08 01:25:03;;;;;;;36.20;10.05;;;8.70;99.90;;;;;;5292976;28;20107;-73
2022/01/08 01:27:59;;;;;;;32.83;9.73;;;8.60;99.90;;;;;;5292807;28;20047;-72
2022/01/08 01:47:13;;;;;;;38.83;10.18;;;8.60;99.90;;;;;;5292761;28;20092;-72
2022/01/08 01:49:47;;;;;;;35.42;10.32;;;8.70;99.90;;;;;;5292582;28;20023;-72
2022/01/08 01:52:18;;;;;;;36.33;10.70;;;8.70;99.90;;;;;;5292421;28;20051;-72
2022/01/08 01:54:49;;;;;;;33.53;9.38;;;8.70;99.90;;;;;;5292324;28;20415;-73
2022/01/08 01:57:20;;;;;;;32.80;10.73;;;8.70;99.90;;;;;;5292442;28;20352;-73
2022/01/08 01:59:51;;;;;;;38.67;11.15;;;8.60;99.90;;;;;;5292178;28;20024;-72
2022/01/08 02:02:22;;;;;;;40.40;10.60;;;8.70;99.90;;;;;;5292372;28;20424;-72
2022/01/08 02:04:53;;;;;;;37.80;11.32;;;8.70;99.90;;;;;;5292055;28;20467;-72
2022/01/08 02:07:27;;;;;;;36.60;11.77;;;8.70;99.90;;;;;;5292060;28;20390;-72
2022/01/08 02:09:57;;;;;;;45.97;11.82;;;8.70;99.90;;;;;;5291930;28;20479;-72
2022/01/08 02:12:32;;;;;;;35.22;11.10;;;8.70;99.90;;;;;;5292028;28;20055;-72
2022/01/08 02:15:03;;;;;;;33.00;10.65;;;8.70;99.90;;;;;;5291957;28;20099;-72
2022/01/08 02:17:34;;;;;;;38.05;11.05;;;8.70;99.90;;;;;;5291860;28;20051;-73
2022/01/08 02:20:05;;;;;;;33.08;11.40;;;8.90;99.90;;;;;;5291934;27;20117;-72
2022/01/08 02:22:36;;;;;;;41.55;10.63;;;8.80;99.90;;;;;;5291723;28;20024;-72
2022/01/08 02:25:08;;;;;;;32.05;9.73;;;8.80;99.90;;;;;;5291924;28;20493;-72
2022/01/08 02:27:38;;;;;;;40.67;10.82;;;8.80;99.90;;;;;;5291597;28;20348;-72
2022/01/08 02:30:09;;;;;;;27.90;10.75;;;8.80;99.90;;;;;;5289862;28;20052;-72
2022/01/08 02:32:41;;;;;;;34.95;9.73;;;8.80;99.90;;;;;;5291646;28;20019;-72
2022/01/08 02:35:12;;;;;;;31.70;10.00;;;8.80;99.90;;;;;;5291156;28;20139;-72
2022/01/08 02:37:43;;;;;;;33.00;10.00;;;8.80;99.90;;;;;;5291265;28;20103;-73
2022/01/08 02:40:14;;;;;;;28.85;9.38;;;8.90;99.90;;;;;;5291328;28;20020;-73
2022/01/08 02:42:59;;;;;;;26.02;8.73;;;8.90;99.90;;;;;;5291361;28;20030;-72
2022/01/08 02:45:31;;;;;;;24.17;7.90;;;8.80;99.90;;;;;;5289996;28;20024;-72
2022/01/08 02:48:09;;;;;;;29.70;9.75;;;8.90;99.90;;;;;;5291047;28;20042;-72
2022/01/08 02:50:44;;;;;;;28.58;7.97;;;8.90;99.90;;;;;;5289946;28;20032;-72
2022/01/08 02:53:24;;;;;;;21.17;6.88;;;8.80;99.90;;;;;;5290060;28;20374;-72
2022/01/08 02:55:59;;;;;;;24.88;7.85;;;8.80;99.90;;;;;;5291131;28;20072;-72
2022/01/08 02:58:30;;;;;;;26.10;8.40;;;8.70;99.90;;;;;;5291085;28;20042;-72
2022/01/08 03:01:01;;;;;;;29.58;8.10;;;8.80;99.90;;;;;;5290844;28;20032;-72
2022/01/08 03:03:31;;;;;;;28.58;8.25;;;8.80;99.90;;;;;;5290953;28;20463;-72
2022/01/08 03:06:02;;;;;;;24.15;8.52;;;8.70;99.90;;;;;;5290998;28;20027;-72
2022/01/08 03:08:33;;;;;;;27.25;8.55;;;8.70;99.90;;;;;;5290639;28;20472;-72
2022/01/08 03:11:04;;;;;;;28.95;7.95;;;8.80;99.90;;;;;;5290750;28;20041;-72
2022/01/08 03:13:35;;;;;;;21.52;7.47;;;8.80;99.90;;;;;;5290819;28;20023;-72
2022/01/08 03:16:06;;;;;;;27.70;7.63;;;8.80;99.90;;;;;;5290871;28;20370;-72
2022/01/08 03:18:37;;;;;;;22.73;6.65;;;8.80;99.90;;;;;;5290751;28;20090;-72
2022/01/08 03:21:14;;;;;;;28.70;7.60;;;8.80;99.90;;;;;;5290628;28;20027;-72
2022/01/08 03:24:00;;;;;;;25.10;6.97;;;8.90;99.90;;;;;;5290628;28;20034;-73
2022/01/08 03:26:30;;;;;;;25.55;7.05;;;8.90;99.90;;;;;;5289228;28;20153;-72
2022/01/08 03:29:01;;;;;;;23.70;7.05;;;8.90;99.90;;;;;;5290491;28;20110;-72
2022/01/08 03:31:32;;;;;;;25.30;6.43;;;8.80;99.90;;;;;;5289235;28;20027;-73
2022/01/08 03:34:05;;;;;;;24.38;7.35;;;8.80;99.90;;;;;;5290122;28;20387;-72
2022/01/08 03:36:35;;;;;;;23.08;6.53;;;8.70;99.90;;;;;;5290314;28;20059;-73
2022/01/08 03:39:06;;;;;;;25.77;7.20;;;8.80;99.90;;;;;;5290454;28;20047;-73
2022/01/08 03:41:37;;;;;;;26.05;7.45;;;8.80;99.90;;;;;;5289543;28;20088;-72
2022/01/08 03:44:08;;;;;;;29.75;7.88;;;8.70;99.90;;;;;;5283444;28;20498;-72
2022/01/08 03:46:39;;;;;;;24.95;8.18;;;8.70;99.90;;;;;;5280332;28;20039;-72
2022/01/08 03:49:22;;;;;;;29.70;8.30;;;8.70;99.90;;;;;;5284221;28;20042;-72
2022/01/08 03:51:56;;;;;;;25.08;6.70;;;8.70;99.90;;;;;;5269192;28;20039;-72
2022/01/08 03:54:26;;;;;;;28.70;8.13;;;8.70;99.90;;;;;;5269236;28;20100;-72
2022/01/08 03:56:58;;;;;;;23.73;8.50;;;8.80;99.90;;;;;;5269194;28;20055;-72
2022/01/08 03:59:28;;;;;;;24.70;8.40;;;8.80;99.90;;;;;;5268991;28;20035;-72
2022/01/08 04:02:00;;;;;;;28.55;7.50;;;8.90;99.90;;;;;;5269048;28;20024;-72
2022/01/08 04:04:31;;;;;;;22.48;7.45;;;8.90;99.90;;;;;;5267579;28;20040;-72
2022/01/08 04:07:02;;;;;;;32.90;8.02;;;8.90;99.90;;;;;;5267730;28;20161;-72
2022/01/08 04:09:33;;;;;;;23.05;8.02;;;8.80;99.90;;;;;;5268960;28;20027;-72
2022/01/08 04:12:06;;;;;;;29.38;6.80;;;8.90;99.90;;;;;;5269036;28;20026;-72
2022/01/08 04:14:51;;;;;;;25.08;8.68;;;8.80;99.90;;;;;;5268961;28;20108;-71
2022/01/08 04:17:22;;;;;;;26.77;8.18;;;8.90;99.90;;;;;;5269118;28;20050;-72
2022/01/08 04:19:52;;;;;;;25.38;8.35;;;8.80;99.90;;;;;;5267612;28;20024;-72
2022/01/08 04:22:25;;;;;;;34.83;9.20;;;8.90;99.90;;;;;;5268883;28;20024;-72
2022/01/08 04:24:56;;;;;;;26.88;7.55;;;8.90;99.90;;;;;;5268756;28;20035;-72
2022/01/08 04:27:26;;;;;;;33.33;7.75;;;8.90;99.90;;;;;;5268448;28;20085;-72
2022/01/08 04:29:57;;;;;;;29.60;7.25;;;8.80;99.90;;;;;;5268704;28;20032;-73
2022/01/08 04:32:28;;;;;;;25.80;7.22;;;8.90;99.90;;;;;;5268671;28;20016;-72
2022/01/08 04:34:59;;;;;;;20.65;6.38;;;8.90;99.90;;;;;;5267214;28;20040;-72
2022/01/08 04:37:30;;;;;;;28.63;7.20;;;8.90;99.90;;;;;;5268728;28;20024;-72
2022/01/08 04:40:01;;;;;;;27.80;7.80;;;8.90;99.90;;;;;;5268859;28;20020;-72
2022/01/08 04:42:31;;;;;;;29.08;8.35;;;8.90;99.90;;;;;;5268875;28;20028;-72
2022/01/08 04:45:03;;;;;;;31.55;9.52;;;8.80;99.90;;;;;;5267483;28;20028;-72
2022/01/08 04:47:33;;;;;;;34.50;10.73;;;8.80;99.90;;;;;;5268393;28;20028;-72
2022/01/08 04:50:05;;;;;;;34.60;11.30;;;8.80;99.90;;;;;;5268728;28;20068;-72
2022/01/08 04:52:35;;;;;;;27.73;9.90;;;8.80;99.90;;;;;;5269090;28;20116;-72
2022/01/08 04:55:07;;;;;;;34.97;9.20;;;8.70;99.90;;;;;;5272637;28;20115;-72
2022/01/08 04:57:37;;;;;;;28.85;8.45;;;8.80;99.90;;;;;;5272459;28;20020;-72
2022/01/08 05:00:09;;;;;;;36.15;8.88;;;8.80;99.90;;;;;;5272515;28;20426;-72
2022/01/08 05:02:40;;;;;;;37.17;9.57;;;8.80;99.90;;;;;;5270996;28;20034;-72
2022/01/08 05:05:11;;;;;;;35.47;9.10;;;8.80;99.90;;;;;;5272269;28;20020;-72
2022/01/08 05:07:42;;;;;;;25.38;9.75;;;8.80;99.90;;;;;;5272157;28;20036;-72
2022/01/08 05:10:13;;;;;;;31.27;9.75;;;8.80;99.90;;;;;;5272205;28;20032;-72
2022/01/08 05:12:44;;;;;;;42.50;10.90;;;8.90;99.90;;;;;;5272231;28;20035;-73
2022/01/08 05:15:16;;;;;;;31.38;11.48;;;8.90;99.90;;;;;;5272176;28;20067;-72
2022/01/08 05:17:54;;;;;;;44.00;12.07;;;8.80;99.90;;;;;;5270791;28;20036;-73
2022/01/08 05:20:30;;;;;;;33.35;11.15;;;8.80;99.90;;;;;;5272005;28;21757;-72
2022/01/08 05:23:03;;;;;;;33.08;11.60;;;8.80;99.90;;;;;;5272234;28;20456;-72
2022/01/08 05:25:34;;;;;;;33.63;11.30;;;8.80;99.90;;;;;;5271920;28;20024;-73
2022/01/08 05:28:05;;;;;;;28.75;9.80;;;8.90;99.90;;;;;;5271725;28;20114;-72
2022/01/08 05:30:36;;;;;;;39.28;10.93;;;8.90;99.90;;;;;;5270512;28;20119;-72
2022/01/08 05:33:07;;;;;;;42.28;10.25;;;8.90;99.90;;;;;;5271702;28;20016;-73
2022/01/08 05:35:38;;;;;;;35.78;10.60;;;8.80;99.90;;;;;;5271474;28;20560;-72
2022/01/08 05:38:09;;;;;;;34.95;11.07;;;8.80;99.90;;;;;;5270251;28;20024;-73
2022/01/08 05:40:40;;;;;;;31.60;10.40;;;8.90;99.90;;;;;;5271740;28;20518;-73
2022/01/08 05:43:11;;;;;;;41.72;10.93;;;8.90;99.90;;;;;;5271561;28;20085;-72
2022/01/08 05:45:41;;;;;;;30.48;9.73;;;9.00;99.90;;;;;;5271506;28;20050;-72
2022/01/08 05:48:13;;;;;;;38.35;10.32;;;8.90;99.90;;;;;;5271335;28;20028;-72
2022/01/08 05:50:44;;;;;;;41.78;11.40;;;8.90;99.90;;;;;;5271411;28;20081;-73
2022/01/08 05:53:15;;;;;;;41.13;11.40;;;8.90;99.90;;;;;;5271284;28;20102;-73
2022/01/08 05:55:46;;;;;;;34.70;11.05;;;8.90;99.90;;;;;;5271282;28;20028;-72
2022/01/08 05:58:17;;;;;;;37.58;11.85;;;9.00;99.90;;;;;;5271381;28;20021;-73
2022/01/08 06:00:48;;;;;;;39.55;12.57;;;9.00;99.90;;;;;;5271159;28;20024;-72
2022/01/08 06:03:19;;;;;;;37.58;12.68;;;8.90;99.90;;;;;;5270079;28;20020;-72
2022/01/08 06:05:51;;;;;;;32.40;12.93;;;8.90;99.90;;;;;;5270128;28;20028;-72
2022/01/08 06:08:22;;;;;;;44.33;13.43;;;8.90;99.90;;;;;;5277238;28;20034;-72
2022/01/08 06:10:53;;;;;;;43.28;13.98;;;8.90;99.90;;;;;;5277472;28;20107;-72
2022/01/08 06:13:23;;;;;;;39.13;14.07;;;9.00;99.90;;;;;;5271922;28;20031;-72
2022/01/08 06:15:54;;;;;;;46.53;15.63;;;9.10;99.90;;;;;;5275935;28;20451;-72
2022/01/08 06:18:25;;;;;;;37.63;15.80;;;9.00;99.90;;;;;;5291760;28;20054;-72
2022/01/08 06:20:59;;;;;;;46.38;14.77;;;9.00;99.90;;;;;;5291639;28;20016;-72
2022/01/08 06:23:30;;;;;;;43.85;15.85;;;9.00;99.90;;;;;;5291806;28;20023;-72
2022/01/08 06:26:00;;;;;;;38.97;16.13;;;9.00;99.90;;;;;;5291796;28;20367;-72
2022/01/08 06:28:31;;;;;;;41.58;15.93;;;9.10;99.90;;;;;;5291399;28;20053;-72
2022/01/08 06:31:02;;;;;;;44.50;16.45;;;9.10;99.90;;;;;;5291807;28;20016;-72
2022/01/08 06:33:33;;;;;;;39.17;16.55;;;9.10;99.90;;;;;;5291682;28;20055;-72
2022/01/08 06:36:04;;;;;;;44.30;16.33;;;9.10;99.90;;;;;;5291481;28;20051;-73
2022/01/08 06:38:34;;;;;;;40.13;15.80;;;9.20;99.90;;;;;;5291522;28;20036;-73
2022/01/08 06:41:05;;;;;;;40.67;15.75;;;9.10;99.90;;;;;;5276178;28;20497;-72
2022/01/08 06:43:36;;;;;;;41.58;16.17;;;9.20;99.90;;;;;;5270263;28;20027;-72
2022/01/08 06:46:07;;;;;;;41.78;16.20;;;9.20;99.90;;;;;;5270281;28;20031;-73
2022/01/08 06:48:38;;;;;;;48.70;15.63;;;9.30;99.90;;;;;;5269988;28;20475;-72
2022/01/08 06:51:09;;;;;;;43.85;14.07;;;9.20;99.90;;;;;;5270007;28;20019;-72
2022/01/08 06:53:40;;;;;;;45.97;15.73;;;9.20;99.90;;;;;;5270103;28;20039;-72
2022/01/08 06:56:11;;;;;;;39.33;15.32;;;9.10;99.90;;;;;;5269920;28;20095;-73
2022/01/08 06:58:42;;;;;;;36.42;15.65;;;9.20;99.90;;;;;;5269909;28;20015;-73
2022/01/08 07:01:13;;;;;;;43.50;15.98;;;9.10;99.90;;;;;;5269909;28;20091;-72
2022/01/08 07:03:44;;;;;;;48.30;17.27;;;9.20;99.90;;;;;;5269972;28;20134;-72
2022/01/08 07:06:14;;;;;;;47.47;17.23;;;9.30;99.90;;;;;;5268745;28;20059;-72
2022/01/08 07:08:45;;;;;;;56.50;18.65;;;9.10;99.90;;;;;;5269668;28;20032;-72
2022/01/08 07:11:19;;;;;;;48.53;18.25;;;9.20;99.90;;;;;;5270004;28;20028;-72
2022/01/08 07:13:50;;;;;;;37.50;16.63;;;9.20;99.90;;;;;;5280127;28;20020;-72
2022/01/08 07:16:21;;;;;;;47.70;16.92;;;9.20;99.90;;;;;;5290717;28;20547;-72
2022/01/08 07:18:51;;;;;;;46.47;17.80;;;9.20;99.90;;;;;;5290883;28;20077;-72
2022/01/08 07:21:22;;;;;;;47.22;19.20;;;9.10;99.90;;;;;;5290758;28;20050;-72
2022/01/08 07:23:53;;;;;;;55.78;19.10;;;9.10;99.90;;;;;;5290676;28;20019;-72
2022/01/08 07:26:24;;;;;;;45.58;17.73;;;9.20;99.90;;;;;;5276848;28;20020;-72
2022/01/08 07:28:55;;;;;;;46.20;17.65;;;9.10;99.90;;;;;;5273703;28;20097;-71
2022/01/08 07:31:26;;;;;;;46.10;17.58;;;9.20;99.90;;;;;;5289938;27;20023;-71
2022/01/08 07:33:56;;;;;;;43.33;15.75;;;9.20;99.90;;;;;;5294810;27;20031;-72
2022/01/08 07:36:27;;;;;;;50.92;16.67;;;9.20;99.90;;;;;;5300174;27;20042;-71
2022/01/08 07:38:58;;;;;;;50.47;16.52;;;9.20;99.90;;;;;;5295045;27;20034;-71
2022/01/08 07:41:29;;;;;;;50.78;16.63;;;9.20;99.90;;;;;;5289746;28;20066;-72
2022/01/08 07:44:00;;;;;;;45.42;18.45;;;9.20;99.90;;;;;;5290386;28;20028;-72
2022/01/08 07:46:31;;;;;;;49.38;17.30;;;9.20;99.90;;;;;;5290373;28;20531;-72
2022/01/08 07:49:01;;;;;;;43.92;18.20;;;9.20;99.90;;;;;;5290181;28;20078;-72
2022/01/08 07:51:32;;;;;;;45.97;19.00;;;9.10;99.90;;;;;;5290230;28;20467;-72
2022/01/08 07:54:03;;;;;;;48.90;19.17;;;9.10;99.90;;;;;;5290150;28;20031;-72
2022/01/08 07:56:36;;;;;;;53.13;19.15;;;9.20;99.90;;;;;;5288818;28;20489;-72
2022/01/08 07:59:07;;;;;;;51.15;19.73;;;9.20;99.90;;;;;;5290119;28;20027;-72
2022/01/08 08:01:38;;;;;;;142.57;82.45;;;9.30;99.90;;;;;;5288279;28;20491;-71
2022/01/08 08:04:08;;;;;;;97.35;49.55;;;9.30;99.90;;;;;;5281013;28;20032;-72
2022/01/08 08:06:44;;;;;;;85.88;57.47;;;9.20;99.90;;;;;;5277861;28;20193;-72
2022/01/08 08:09:15;;;;;;;57.88;21.75;;;9.20;99.90;;;;;;5288771;28;20039;-71
2022/01/08 08:11:46;;;;;;;56.50;19.90;;;9.30;99.90;;;;;;5287204;28;20021;-72
2022/01/08 08:14:17;;;;;;;65.05;35.83;;;9.20;99.90;;;;;;5276463;28;20465;-72
2022/01/08 08:16:48;;;;;;;82.57;41.88;;;9.30;99.90;;;;;;5289951;28;20105;-72
2022/01/08 08:19:19;;;;;;;64.55;24.48;;;9.30;99.90;;;;;;5289807;28;20027;-72
2022/01/08 08:21:49;;;;;;;55.20;21.90;;;9.30;99.90;;;;;;5283899;28;20082;-72
2022/01/08 08:24:20;;;;;;;70.85;27.52;;;9.30;99.90;;;;;;5276384;28;20036;-72
2022/01/08 08:26:51;;;;;;;44.13;19.40;;;9.30;99.90;;;;;;5289038;28;20471;-72
2022/01/08 08:29:22;;;;;;;50.55;20.20;;;9.30;99.90;;;;;;5289147;28;20077;-72
2022/01/08 08:31:53;;;;;;;49.88;22.52;;;9.40;99.90;;;;;;5289820;28;20104;-71
2022/01/08 08:34:24;;;;;;;57.50;20.02;;;9.20;99.90;;;;;;5272016;28;20032;-71
2022/01/08 08:36:54;;;;;;;55.60;21.48;;;9.30;99.90;;;;;;5272735;28;20414;-73
2022/01/08 08:39:25;;;;;;;53.05;20.60;;;9.30;99.90;;;;;;5272960;28;20120;-72
2022/01/08 08:41:56;;;;;;;56.05;24.60;;;9.30;99.90;;;;;;5272903;28;20532;-72
2022/01/08 08:44:27;;;;;;;55.55;23.85;;;9.40;99.90;;;;;;5272874;28;20028;-72
2022/01/08 08:46:58;;;;;;;45.92;21.42;;;9.30;99.90;;;;;;5272583;28;20540;-72
2022/01/08 08:49:29;;;;;;;67.03;25.50;;;9.40;99.90;;;;;;5272732;28;20057;-72
2022/01/08 08:52:00;;;;;;;40.75;18.77;;;9.40;99.90;;;;;;5271977;28;20078;-72
2022/01/08 08:54:31;;;;;;;63.80;21.10;;;9.30;99.90;;;;;;5272506;28;20020;-73
2022/01/08 08:57:02;;;;;;;65.00;22.23;;;9.30;99.90;;;;;;5272800;28;20471;-72
2022/01/08 08:59:33;;;;;;;48.03;22.35;;;9.30;99.90;;;;;;5273288;28;20040;-72
2022/01/08 09:02:05;;;;;;;51.17;23.92;;;9.40;99.90;;;;;;5271311;28;20032;-72
2022/01/08 09:04:40;;;;;;;52.33;23.40;;;9.40;99.90;;;;;;5272179;28;20040;-73
2022/01/08 09:07:11;;;;;;;45.10;19.80;;;9.40;99.90;;;;;;5272229;28;20019;-72
2022/01/08 09:09:42;;;;;;;54.28;23.23;;;9.40;99.90;;;;;;5272369;28;20034;-72
2022/01/08 09:12:16;;;;;;;50.35;21.30;;;9.30;99.90;;;;;;5272351;28;20027;-72
2022/01/08 09:14:47;;;;;;;58.92;23.63;;;9.40;99.90;;;;;;5270893;28;20034;-72
2022/01/08 09:17:20;;;;;;;70.13;28.33;;;9.30;99.90;;;;;;5272187;28;20071;-72
2022/01/08 09:19:52;;;;;;;76.78;40.50;;;9.30;99.90;;;;;;5275830;28;20017;-72
2022/01/08 09:22:23;;;;;;;51.20;26.92;;;9.40;99.90;;;;;;5292948;28;20352;-72
2022/01/08 09:24:54;;;;;;;53.55;26.27;;;9.40;99.90;;;;;;5292637;27;20040;-72
2022/01/08 09:27:25;;;;;;;45.85;23.13;;;9.50;99.90;;;;;;5280463;28;20040;-72
2022/01/08 09:29:56;;;;;;;52.60;19.02;;;9.60;99.90;;;;;;5281253;28;20030;-73
2022/01/08 09:32:29;;;;;;;58.35;22.88;;;9.50;99.90;;;;;;5292834;28;20019;-72
2022/01/08 09:35:00;;;;;;;68.72;26.00;;;9.40;99.90;;;;;;5292412;28;20467;-72
2022/01/08 09:37:33;;;;;;;51.72;19.48;;;9.40;99.90;;;;;;5292749;28;20065;-72
2022/01/08 09:40:07;;;;;;;44.47;19.30;;;9.60;99.90;;;;;;5291322;28;20073;-72
2022/01/08 09:42:41;;;;;;;47.30;18.33;;;9.50;99.90;;;;;;5292519;28;20019;-73
2022/01/08 09:45:13;;;;;;;48.10;21.75;;;9.40;99.90;;;;;;5292658;28;20111;-72
2022/01/08 09:47:43;;;;;;;42.45;21.38;;;9.50;99.90;;;;;;5292509;28;20070;-73
2022/01/08 09:50:14;;;;;;;43.45;19.92;;;9.60;99.90;;;;;;5292267;28;20047;-73
2022/01/08 09:52:45;;;;;;;45.03;21.05;;;9.60;99.90;;;;;;5292578;28;20020;-72
2022/01/08 09:55:16;;;;;;;35.95;17.02;;;9.70;99.90;;;;;;5292248;28;20501;-73
2022/01/08 09:57:47;;;;;;;50.28;21.08;;;9.60;99.90;;;;;;5274345;28;20035;-72
2022/01/08 10:00:19;;;;;;;41.28;21.80;;;9.60;99.90;;;;;;5271304;28;20027;-73
2022/01/08 10:02:51;;;;;;;37.25;15.70;;;9.60;99.90;;;;;;5271602;28;20045;-72
2022/01/08 10:05:22;;;;;;;40.80;20.00;;;9.70;99.90;;;;;;5276439;28;20043;-72
2022/01/08 10:07:58;;;;;;;41.05;19.67;;;9.60;99.90;;;;;;5272398;28;20032;-72
2022/01/08 10:10:29;;;;;;;46.03;21.83;;;9.60;99.90;;;;;;5289552;28;20031;-72
2022/01/08 10:13:01;;;;;;;42.42;21.30;;;9.80;99.90;;;;;;5291644;28;20019;-72
2022/01/08 10:18:33;;;;;;;40.03;17.80;;;9.80;99.90;;;;;;5291633;28;20080;-72
2022/01/08 10:21:30;;;;;;;38.75;18.23;;;9.70;99.90;;;;;;5291631;28;20019;-72
2022/01/08 10:24:05;;;;;;;41.88;19.90;;;9.90;99.90;;;;;;5291439;28;20459;-72
2022/01/08 10:26:39;;;;;;;35.72;20.23;;;10.00;99.90;;;;;;5291340;28;20027;-72
2022/01/08 10:29:18;;;;;;;39.75;20.38;;;10.00;99.90;;;;;;5290672;28;20096;-73
2022/01/08 10:31:51;;;;;;;44.43;23.20;;;10.00;99.90;;;;;;5291759;28;20043;-73
2022/01/08 10:34:23;;;;;;;44.53;22.00;;;10.10;99.90;;;;;;5291275;28;20032;-73
2022/01/08 10:37:00;;;;;;;38.38;20.58;;;9.90;99.90;;;;;;5291686;28;20031;-73
2022/01/08 10:39:34;;;;;;;52.63;26.98;;;10.00;99.90;;;;;;5291356;28;20036;-73
2022/01/08 10:42:08;;;;;;;42.00;21.20;;;9.90;99.90;;;;;;5291608;28;20047;-73
2022/01/08 10:44:41;;;;;;;41.40;20.02;;;10.00;99.90;;;;;;5291550;28;20049;-73
2022/01/08 10:47:16;;;;;;;34.90;19.50;;;9.90;99.90;;;;;;5291077;28;20491;-73
2022/01/08 10:49:48;;;;;;;49.78;21.20;;;9.90;99.90;;;;;;5291081;28;20031;-72
2022/01/08 10:52:20;;;;;;;65.65;32.53;;;9.90;99.90;;;;;;5290343;28;20050;-73
2022/01/08 10:54:57;;;;;;;34.88;18.10;;;10.00;99.90;;;;;;5283102;28;20131;-73
2022/01/08 10:57:37;;;;;;;38.92;21.83;;;10.00;99.90;;;;;;5279711;27;20023;-73
2022/01/08 11:00:14;;;;;;;59.13;37.78;;;10.00;99.90;;;;;;5295052;27;20096;-73
2022/01/08 11:02:45;;;;;;;41.03;26.35;;;9.90;99.90;;;;;;5289496;28;20094;-72
2022/01/08 11:05:16;;;;;;;40.45;22.35;;;9.90;99.90;;;;;;5297786;27;20041;-73
2022/01/08 11:07:47;;;;;;;35.20;19.63;;;9.80;99.90;;;;;;5300366;27;20442;-72
2022/01/08 11:10:20;;;;;;;39.60;20.95;;;9.80;99.90;;;;;;5300807;27;20019;-72
2022/01/08 11:12:51;;;;;;;41.58;20.50;;;9.90;99.90;;;;;;5300662;27;20044;-72
2022/01/08 11:15:25;;;;;;;46.03;22.38;;;9.90;99.90;;;;;;5297797;27;20509;-72
2022/01/08 11:18:00;;;;;;;44.97;21.48;;;9.80;99.90;;;;;;5300326;27;20434;-73
2022/01/08 11:20:33;;;;;;;44.33;21.40;;;9.80;99.90;;;;;;5298956;27;20015;-73
2022/01/08 11:23:04;;;;;;;42.22;19.73;;;9.70;99.90;;;;;;5292518;27;20118;-73
2022/01/08 11:25:36;;;;;;;31.38;17.05;;;9.90;99.90;;;;;;5298596;27;20506;-72
2022/01/08 11:28:13;;;;;;;29.52;13.60;;;9.90;99.90;;;;;;5301106;27;20073;-73
2022/01/08 11:30:52;;;;;;;28.40;15.90;;;9.80;99.90;;;;;;5297211;27;20046;-73
2022/01/08 11:33:27;;;;;;;27.60;13.88;;;9.90;99.90;;;;;;5285458;27;20356;-73
2022/01/08 11:35:59;;;;;;;28.23;17.67;;;9.90;99.90;;;;;;5289596;27;20499;-73
2022/01/08 11:38:30;;;;;;;24.75;14.35;;;10.00;99.90;;;;;;5293084;27;20111;-72
2022/01/08 11:41:04;;;;;;;28.52;16.15;;;10.00;99.90;;;;;;5288574;28;20449;-72
2022/01/08 11:43:36;;;;;;;24.60;12.80;;;10.00;99.90;;;;;;5292994;27;20033;-73
2022/01/08 11:46:10;;;;;;;22.15;12.70;;;10.00;99.90;;;;;;5290635;27;20112;-73
2022/01/08 11:48:47;;;;;;;20.35;12.77;;;9.90;99.90;;;;;;5291449;27;20710;-72
2022/01/08 11:51:21;;;;;;;28.10;16.45;;;10.00;99.90;;;;;;5288715;28;20042;-72
2022/01/08 11:53:54;;;;;;;19.30;13.07;;;10.00;99.90;;;;;;5288378;28;20138;-73
2022/01/08 11:56:30;;;;;;;23.65;13.02;;;10.10;99.90;;;;;;5296882;27;20023;-72
2022/01/08 11:59:07;;;;;;;23.52;14.80;;;10.00;99.90;;;;;;5288565;27;20031;-72
2022/01/08 12:01:46;;;;;;;18.50;10.73;;;10.10;99.90;;;;;;5293913;27;20046;-72
2022/01/08 12:04:33;;;;;;;19.00;14.32;;;9.90;99.90;;;;;;5292733;28;20031;-73
2022/01/08 12:07:36;;;;;;;32.75;22.73;;;10.00;99.90;;;;;;5288692;28;20031;-73
2022/01/08 12:10:14;;;;;;;25.60;14.63;;;10.10;99.90;;;;;;5267721;28;20050;-72
2022/01/08 12:12:59;;;;;;;30.95;16.00;;;10.00;99.90;;;;;;5294359;28;20034;-72
2022/01/08 12:15:44;;;;;;;29.65;22.48;;;10.10;99.90;;;;;;5293087;27;20048;-72
2022/01/08 12:18:21;;;;;;;26.17;16.10;;;10.10;99.90;;;;;;5290948;28;20053;-73
2022/01/08 12:20:54;;;;;;;29.70;16.58;;;10.10;99.90;;;;;;5287778;28;20201;-72
2022/01/08 12:23:36;;;;;;;26.70;17.77;;;10.00;99.90;;;;;;5288620;28;20024;-72
2022/01/08 12:26:22;;;;;;;30.77;15.25;;;9.90;99.90;;;;;;5290074;28;20420;-72
2022/01/08 12:29:01;;;;;;;28.70;16.85;;;10.10;99.90;;;;;;5292476;28;20067;-72
2022/01/08 12:31:52;;;;;;;41.00;21.85;;;10.10;99.90;;;;;;5288540;28;20020;-72
2022/01/08 12:34:25;;;;;;;28.15;14.07;;;10.00;99.90;;;;;;5294501;28;20029;-72
2022/01/08 12:37:04;;;;;;;25.90;13.30;;;10.00;99.90;;;;;;5288626;27;20039;-72
2022/01/08 12:39:44;;;;;;;26.02;14.52;;;10.10;99.90;;;;;;5292471;28;20031;-72
2022/01/08 12:42:25;;;;;;;24.58;13.48;;;10.10;99.90;;;;;;5292446;28;20032;-72
2022/01/08 12:45:00;;;;;;;26.67;17.60;;;10.00;99.90;;;;;;5288369;28;20081;-72
2022/01/08 12:47:50;;;;;;;23.98;13.68;;;10.00;99.90;;;;;;5292665;28;20024;-72
2022/01/08 12:50:42;;;;;;;29.13;16.55;;;10.00;99.90;;;;;;5293797;28;20058;-71
2022/01/08 12:53:22;;;;;;;35.17;19.67;;;10.00;99.90;;;;;;5292366;28;20024;-71
2022/01/08 12:55:56;;;;;;;36.15;18.85;;;9.90;99.90;;;;;;5292025;28;20035;-71
2022/01/08 12:58:43;;;;;;;40.92;20.30;;;9.90;99.90;;;;;;5287610;28;20652;-71
2022/01/08 13:01:19;;;;;;;27.13;14.65;;;10.00;99.90;;;;;;5286306;28;20032;-71
2022/01/08 13:03:56;;;;;;;42.88;22.42;;;9.90;99.90;;;;;;5287524;28;20023;-71
2022/01/08 13:06:32;;;;;;;38.72;22.08;;;9.90;99.90;;;;;;5287054;28;20023;-72
2022/01/08 13:09:06;;;;;;;45.50;29.33;;;9.90;99.90;;;;;;5292209;28;20039;-71
2022/01/08 13:11:41;;;;;;;35.38;25.60;;;9.90;99.90;;;;;;5287938;28;20020;-71
2022/01/08 13:14:16;;;;;;;35.30;16.58;;;9.90;99.90;;;;;;5295579;27;20055;-71
2022/01/08 13:16:53;;;;;;;24.27;14.85;;;9.90;99.90;;;;;;5298130;27;20458;-71
2022/01/08 13:19:27;;;;;;;26.23;14.13;;;9.90;99.90;;;;;;5291812;28;20043;-71
2022/01/08 13:22:05;;;;;;;31.30;21.90;;;9.90;99.90;;;;;;5295701;27;20023;-71
2022/01/08 13:24:46;;;;;;;29.52;15.35;;;9.90;99.90;;;;;;5287569;28;20023;-71
2022/01/08 13:27:23;;;;;;;26.33;13.13;;;9.90;99.90;;;;;;5292005;28;20030;-71